Time;durP1;ratioP1;P1;durP2;ratioP2;P2;SDS_P1;SDS_P2;PMS_P1;PMS_P2;Temp;Humidity;BMP_temperature;BMP_pressure;BME280_temperature;BME280_humidity;BME280_pressure;Samples;Min_cycle;Max_cycle;Signal;HPM_P1;HPM_P2
2021/05/15 00:00:12;;;;;;;8.75;7.90;;;17.50;62.20;;;;;;6168606;23;20340;-75
2021/05/15 00:02:38;;;;;;;9.88;8.57;;;17.50;62.10;;;;;;6142751;23;20145;-76
2021/05/15 00:05:07;;;;;;;11.80;8.98;;;17.50;62.10;;;;;;6169028;23;20052;-74
2021/05/15 00:07:33;;;;;;;9.70;8.65;;;17.50;62.20;;;;;;6168450;23;20017;-75
2021/05/15 00:09:59;;;;;;;9.57;8.68;;;17.50;62.20;;;;;;6142874;23;20048;-74
2021/05/15 00:12:25;;;;;;;9.80;8.82;;;17.50;62.10;;;;;;6143087;23;20025;-74
2021/05/15 00:14:52;;;;;;;9.10;8.20;;;17.50;62.20;;;;;;6168141;23;20021;-74
2021/05/15 00:17:19;;;;;;;9.65;8.68;;;17.40;62.10;;;;;;6158082;23;20419;-73
2021/05/15 00:19:45;;;;;;;9.50;8.60;;;17.40;62.10;;;;;;6168396;23;20101;-75
2021/05/15 00:22:11;;;;;;;9.57;8.57;;;17.40;62.10;;;;;;6159013;23;20045;-74
2021/05/15 00:24:37;;;;;;;9.73;8.77;;;17.40;62.10;;;;;;6168917;23;20006;-76
2021/05/15 00:27:04;;;;;;;9.10;8.20;;;17.40;62.10;;;;;;6168307;23;20020;-75
2021/05/15 00:29:29;;;;;;;9.25;8.07;;;17.40;62.10;;;;;;6158668;23;20063;-76
2021/05/15 00:31:55;;;;;;;9.15;8.25;;;17.40;62.10;;;;;;6167875;23;20411;-75
2021/05/15 00:34:21;;;;;;;9.82;8.82;;;17.40;62.10;;;;;;6168393;23;20009;-74
2021/05/15 00:36:48;;;;;;;8.88;8.00;;;17.40;62.10;;;;;;6143339;23;20040;-73
2021/05/15 00:39:17;;;;;;;8.52;7.72;;;17.40;62.10;;;;;;6168107;23;20471;-75
2021/05/15 00:41:43;;;;;;;9.10;8.27;;;17.40;62.00;;;;;;6142754;23;20089;-73
2021/05/15 00:44:14;;;;;;;9.23;8.30;;;17.40;62.00;;;;;;6159013;23;20414;-75
2021/05/15 00:46:43;;;;;;;8.88;8.00;;;17.30;61.90;;;;;;6167775;23;20430;-75
2021/05/15 00:49:09;;;;;;;8.40;7.53;;;17.30;61.90;;;;;;6168148;23;20016;-74
2021/05/15 00:51:34;;;;;;;8.70;7.80;;;17.40;61.90;;;;;;6168137;23;20020;-75
2021/05/15 00:54:04;;;;;;;8.30;7.60;;;17.30;61.90;;;;;;6164975;23;20014;-74
2021/05/15 00:56:32;;;;;;;8.52;7.72;;;17.30;61.80;;;;;;6168052;23;20014;-75
2021/05/15 00:58:59;;;;;;;9.07;8.18;;;17.30;61.80;;;;;;6132539;23;20088;-75
2021/05/15 01:01:26;;;;;;;9.48;8.57;;;17.30;61.80;;;;;;6168727;23;20013;-74
2021/05/15 01:03:52;;;;;;;8.48;7.68;;;17.30;61.80;;;;;;6167558;23;20323;-74
2021/05/15 01:06:18;;;;;;;8.57;7.75;;;17.30;61.90;;;;;;6167645;23;20080;-75
2021/05/15 01:08:45;;;;;;;9.07;8.02;;;17.30;61.90;;;;;;6168053;23;20021;-75
2021/05/15 01:11:14;;;;;;;8.63;7.70;;;17.30;61.90;;;;;;6168652;23;20016;-76
2021/05/15 01:13:48;;;;;;;8.63;7.80;;;17.30;62.10;;;;;;6168476;23;20017;-74
2021/05/15 01:16:14;;;;;;;8.48;7.68;;;17.30;61.90;;;;;;6142227;23;20010;-74
2021/05/15 01:18:40;;;;;;;9.90;8.57;;;17.30;62.00;;;;;;6142714;23;20268;-76
2021/05/15 01:21:06;;;;;;;8.10;7.40;;;17.30;61.90;;;;;;6168020;23;20009;-74
2021/05/15 01:23:31;;;;;;;9.15;7.45;;;17.20;61.90;;;;;;6167939;23;20013;-75
2021/05/15 01:25:57;;;;;;;8.73;7.93;;;17.30;61.90;;;;;;6167332;23;20020;-76
2021/05/15 01:28:29;;;;;;;7.68;6.97;;;17.20;61.90;;;;;;6168425;23;20013;-74
2021/05/15 01:30:54;;;;;;;8.32;7.53;;;17.20;61.80;;;;;;6167938;23;20021;-75
2021/05/15 01:33:20;;;;;;;8.88;7.93;;;17.30;61.90;;;;;;6157903;23;20013;-77
2021/05/15 01:35:46;;;;;;;8.98;8.07;;;17.20;61.90;;;;;;6168507;23;20076;-73
2021/05/15 01:38:12;;;;;;;8.77;7.88;;;17.20;61.90;;;;;;6167433;23;20021;-74
2021/05/15 01:40:37;;;;;;;8.02;7.22;;;17.20;61.90;;;;;;6167504;23;20040;-74
2021/05/15 01:43:03;;;;;;;8.88;7.97;;;17.20;61.90;;;;;;6168088;23;20060;-75
2021/05/15 01:45:29;;;;;;;8.35;7.55;;;17.20;61.90;;;;;;6142684;23;20021;-74
2021/05/15 01:47:55;;;;;;;8.82;7.80;;;17.20;62.00;;;;;;6167776;23;20344;-74
2021/05/15 01:50:21;;;;;;;8.80;7.88;;;17.20;61.90;;;;;;6158465;23;20037;-76
2021/05/15 01:52:47;;;;;;;8.35;7.53;;;17.20;61.90;;;;;;6169009;23;20092;-75
2021/05/15 01:55:21;;;;;;;8.25;7.45;;;17.20;61.90;;;;;;6161410;23;20014;-74
2021/05/15 01:57:47;;;;;;;;;;;17.10;61.80;;;;;;6170240;23;20067;-74
2021/05/15 02:00:13;;;;;;;8.45;7.63;;;17.10;61.80;;;;;;6169719;23;19943;-75
2021/05/15 02:02:39;;;;;;;8.07;7.30;;;17.10;61.90;;;;;;6169633;23;20085;-74
2021/05/15 02:05:05;;;;;;;7.85;6.95;;;17.10;61.90;;;;;;6159776;23;20277;-76
2021/05/15 02:07:31;;;;;;;8.27;7.47;;;17.10;61.90;;;;;;6169917;23;20017;-74
2021/05/15 02:09:57;;;;;;;8.00;7.20;;;17.10;61.90;;;;;;6169201;23;20017;-73
2021/05/15 02:12:22;;;;;;;8.18;7.38;;;17.10;61.90;;;;;;6144386;23;20024;-74
2021/05/15 02:14:48;;;;;;;8.10;7.30;;;17.10;61.90;;;;;;6169146;23;20107;-75
2021/05/15 02:17:14;;;;;;;8.88;7.65;;;17.10;61.90;;;;;;6169546;23;20040;-75
2021/05/15 02:19:40;;;;;;;8.95;7.65;;;17.10;61.90;;;;;;6169513;23;20319;-75
2021/05/15 02:22:06;;;;;;;8.45;7.55;;;17.10;61.90;;;;;;6169570;23;20065;-75
2021/05/15 02:24:31;;;;;;;8.48;7.60;;;17.10;61.90;;;;;;6143750;23;20005;-75
2021/05/15 02:26:57;;;;;;;8.00;7.22;;;17.10;61.90;;;;;;6169693;23;20014;-76
2021/05/15 02:29:23;;;;;;;8.38;7.60;;;17.10;61.90;;;;;;6169059;23;20025;-75
2021/05/15 02:31:49;;;;;;;7.88;7.07;;;17.10;61.90;;;;;;6169510;23;20017;-74
2021/05/15 02:34:15;;;;;;;8.40;7.60;;;17.10;61.90;;;;;;6170091;23;20020;-73
2021/05/15 02:36:40;;;;;;;8.02;7.22;;;17.10;61.90;;;;;;6159660;23;20024;-75
2021/05/15 02:39:06;;;;;;;7.60;6.90;;;17.10;61.90;;;;;;6169192;23;20399;-74
2021/05/15 02:41:32;;;;;;;7.47;6.78;;;17.00;61.90;;;;;;6169363;23;20024;-77
2021/05/15 02:43:58;;;;;;;9.05;8.13;;;17.00;61.90;;;;;;6169205;23;20025;-74
2021/05/15 02:46:24;;;;;;;8.55;7.70;;;17.10;61.90;;;;;;6169992;23;20088;-74
2021/05/15 02:48:50;;;;;;;8.57;7.65;;;17.00;61.90;;;;;;6169588;23;20037;-75
2021/05/15 02:51:16;;;;;;;8.00;7.30;;;17.00;61.90;;;;;;6168807;23;20017;-75
2021/05/15 02:53:42;;;;;;;8.95;7.80;;;17.00;61.90;;;;;;6159065;23;20017;-74
2021/05/15 02:56:07;;;;;;;8.23;7.25;;;17.00;61.90;;;;;;6169330;23;20079;-77
2021/05/15 02:58:33;;;;;;;8.70;7.65;;;17.00;61.90;;;;;;6169249;23;20391;-74
2021/05/15 03:00:59;;;;;;;8.05;7.25;;;17.00;61.80;;;;;;6169574;23;20017;-74
2021/05/15 03:03:25;;;;;;;7.60;6.90;;;17.00;61.80;;;;;;6132989;23;20048;-76
2021/05/15 03:05:50;;;;;;;8.75;7.88;;;17.00;61.80;;;;;;6169705;23;20020;-74
2021/05/15 03:08:22;;;;;;;8.98;8.07;;;17.00;61.80;;;;;;6144496;23;20025;-74
2021/05/15 03:10:47;;;;;;;8.05;7.25;;;17.00;62.50;;;;;;6169781;23;20276;-73
2021/05/15 03:13:13;;;;;;;8.07;7.28;;;17.00;61.80;;;;;;6169004;23;20047;-75
2021/05/15 03:15:40;;;;;;;8.25;7.40;;;16.90;61.80;;;;;;6169218;23;20091;-76
2021/05/15 03:18:06;;;;;;;8.23;7.35;;;17.00;61.90;;;;;;6169621;23;20099;-74
2021/05/15 03:20:33;;;;;;;8.18;7.22;;;17.00;61.90;;;;;;6133323;23;20467;-75
2021/05/15 03:22:59;;;;;;;8.07;7.38;;;16.90;61.80;;;;;;6143196;23;20021;-75
2021/05/15 03:25:25;;;;;;;8.25;7.45;;;16.90;61.80;;;;;;6169516;23;20286;-74
2021/05/15 03:27:51;;;;;;;7.95;7.15;;;16.90;61.80;;;;;;6158533;23;20017;-73
2021/05/15 03:30:17;;;;;;;8.38;7.05;;;16.90;61.80;;;;;;6168910;23;20025;-74
2021/05/15 03:32:43;;;;;;;8.02;7.30;;;16.90;61.80;;;;;;6168715;23;20013;-75
2021/05/15 03:35:11;;;;;;;8.10;7.30;;;16.90;61.80;;;;;;6168544;23;20415;-74
2021/05/15 03:37:38;;;;;;;8.05;7.25;;;16.90;61.70;;;;;;6168730;23;20080;-76
2021/05/15 03:40:05;;;;;;;8.40;7.25;;;16.90;62.30;;;;;;6168409;23;20306;-74
2021/05/15 03:42:32;;;;;;;7.70;6.90;;;16.90;61.70;;;;;;6169536;23;20015;-75
2021/05/15 03:44:58;;;;;;;7.75;7.00;;;16.90;61.80;;;;;;6168950;23;20006;-77
2021/05/15 03:47:24;;;;;;;7.40;6.70;;;16.90;61.80;;;;;;6143059;23;20023;-77
2021/05/15 03:49:51;;;;;;;7.88;7.03;;;16.90;61.70;;;;;;6143657;23;20068;-74
2021/05/15 03:52:17;;;;;;;8.30;7.07;;;16.90;61.70;;;;;;6168578;23;20084;-76
2021/05/15 03:54:45;;;;;;;8.75;7.53;;;16.90;61.70;;;;;;6158420;23;20031;-73
2021/05/15 03:57:11;;;;;;;7.95;7.22;;;16.90;61.70;;;;;;6168935;23;20411;-74
2021/05/15 03:59:37;;;;;;;7.97;7.18;;;16.90;61.80;;;;;;6168593;23;20009;-75
2021/05/15 04:02:03;;;;;;;8.85;7.22;;;16.90;61.80;;;;;;6168392;23;20026;-75
2021/05/15 04:04:29;;;;;;;8.45;7.63;;;16.80;61.70;;;;;;6168327;23;20014;-75
2021/05/15 04:06:55;;;;;;;9.68;7.60;;;16.80;61.70;;;;;;6158555;23;20076;-76
2021/05/15 04:09:20;;;;;;;8.02;7.28;;;16.80;61.70;;;;;;6169186;23;20089;-76
2021/05/15 04:11:46;;;;;;;8.18;7.18;;;16.80;61.80;;;;;;6168478;23;20469;-75
2021/05/15 04:14:27;;;;;;;7.90;7.07;;;16.80;61.80;;;;;;6168278;23;20021;-74
2021/05/15 04:17:16;;;;;;;8.13;7.32;;;16.80;61.80;;;;;;6168347;23;20013;-73
2021/05/15 04:19:42;;;;;;;7.65;6.95;;;16.80;61.80;;;;;;6158418;23;20029;-74
2021/05/15 04:22:08;;;;;;;7.90;7.10;;;16.80;61.80;;;;;;6168103;23;20013;-76
2021/05/15 04:24:34;;;;;;;8.02;7.22;;;16.80;61.80;;;;;;6168300;23;20013;-76
2021/05/15 04:27:03;;;;;;;7.57;6.85;;;16.80;61.80;;;;;;6158678;23;20010;-74
2021/05/15 04:29:30;;;;;;;7.45;6.75;;;16.80;61.80;;;;;;6142965;23;20051;-75
2021/05/15 04:31:57;;;;;;;8.20;7.10;;;16.80;61.80;;;;;;6158445;23;20080;-75
2021/05/15 04:34:24;;;;;;;7.72;6.57;;;16.80;61.80;;;;;;6158842;23;20344;-74
2021/05/15 04:36:50;;;;;;;7.68;6.95;;;16.80;61.80;;;;;;6168947;23;20041;-75
2021/05/15 04:39:16;;;;;;;8.23;7.32;;;16.80;61.70;;;;;;6168534;23;20013;-75
2021/05/15 04:41:43;;;;;;;7.57;6.78;;;16.80;61.70;;;;;;6158285;23;20021;-74
2021/05/15 04:44:08;;;;;;;8.00;7.30;;;16.80;61.70;;;;;;6168021;23;20013;-74
2021/05/15 04:46:35;;;;;;;7.78;6.90;;;16.70;61.60;;;;;;6168192;23;20009;-73
2021/05/15 04:49:01;;;;;;;7.50;6.35;;;16.70;61.70;;;;;;6168860;23;20021;-73
2021/05/15 04:51:27;;;;;;;7.68;6.97;;;16.70;61.60;;;;;;6168522;23;20041;-75
2021/05/15 04:53:53;;;;;;;7.55;6.85;;;16.70;61.60;;;;;;6165111;23;20013;-75
2021/05/15 04:56:19;;;;;;;7.85;7.05;;;16.70;61.60;;;;;;6168185;23;20021;-76
2021/05/15 04:58:45;;;;;;;7.57;6.88;;;16.70;61.60;;;;;;6168014;23;20013;-75
2021/05/15 05:01:11;;;;;;;8.20;7.32;;;16.70;61.70;;;;;;6168042;23;20028;-75
2021/05/15 05:03:37;;;;;;;8.48;6.85;;;16.70;61.60;;;;;;6168129;23;20032;-76
2021/05/15 05:06:03;;;;;;;7.05;6.22;;;16.70;61.60;;;;;;6168215;23;20013;-74
2021/05/15 05:08:29;;;;;;;7.70;6.90;;;16.70;61.70;;;;;;6143087;23;20196;-74
2021/05/15 05:10:55;;;;;;;7.63;6.93;;;16.70;61.60;;;;;;6167830;23;20020;-74
2021/05/15 05:13:21;;;;;;;7.82;6.40;;;16.70;61.60;;;;;;6168619;23;20009;-74
2021/05/15 05:15:48;;;;;;;7.30;6.60;;;16.70;61.60;;;;;;6167994;23;20304;-74
2021/05/15 05:18:13;;;;;;;7.32;6.63;;;16.70;61.60;;;;;;6168417;23;20016;-75
2021/05/15 05:20:40;;;;;;;8.00;6.88;;;16.70;61.60;;;;;;6132525;23;20018;-76
2021/05/15 05:23:06;;;;;;;7.47;6.78;;;16.70;61.50;;;;;;6167139;23;20013;-74
2021/05/15 05:25:32;;;;;;;6.55;5.95;;;16.70;61.50;;;;;;6167235;23;20014;-74
2021/05/15 05:27:59;;;;;;;8.13;7.32;;;16.70;61.50;;;;;;6142372;23;20025;-75
2021/05/15 05:30:25;;;;;;;7.43;6.72;;;16.60;61.50;;;;;;6168259;23;20036;-75
2021/05/15 05:32:51;;;;;;;11.27;7.38;;;16.60;61.50;;;;;;6168277;23;20048;-76
2021/05/15 05:35:18;;;;;;;7.00;6.40;;;16.60;61.50;;;;;;6166916;23;20010;-75
2021/05/15 05:37:46;;;;;;;6.43;5.82;;;16.70;61.60;;;;;;6167409;23;20018;-75
2021/05/15 05:40:14;;;;;;;6.13;5.07;;;16.60;61.50;;;;;;6167444;23;20013;-74
2021/05/15 05:42:40;;;;;;;6.07;4.78;;;16.50;59.50;;;;;;6167523;23;20013;-75
2021/05/15 05:45:09;;;;;;;7.35;5.22;;;16.40;59.30;;;;;;6168292;23;20013;-78
2021/05/15 05:47:36;;;;;;;6.13;5.30;;;16.50;61.00;;;;;;6142036;23;20080;-76
2021/05/15 05:50:03;;;;;;;10.25;5.80;;;16.60;61.40;;;;;;6167778;23;20030;-76
2021/05/15 05:52:30;;;;;;;6.07;4.95;;;16.70;61.60;;;;;;6167723;23;20040;-76
2021/05/15 05:54:56;;;;;;;7.15;4.88;;;16.80;61.60;;;;;;6160169;23;20319;-74
2021/05/15 05:57:21;;;;;;;6.32;4.60;;;16.90;61.60;;;;;;6167721;23;20026;-77
2021/05/15 05:59:47;;;;;;;5.88;4.88;;;17.00;61.60;;;;;;6167702;23;20013;-75
2021/05/15 06:02:13;;;;;;;6.72;4.80;;;16.90;59.70;;;;;;6168096;23;20041;-78
2021/05/15 06:04:39;;;;;;;6.70;5.10;;;16.90;61.00;;;;;;6141472;23;20410;-75
2021/05/15 06:07:06;;;;;;;6.70;4.68;;;17.00;61.50;;;;;;6167672;23;20013;-74
2021/05/15 06:09:32;;;;;;;6.18;4.68;;;17.10;61.80;;;;;;6167713;23;20009;-76
2021/05/15 06:11:57;;;;;;;7.60;4.82;;;17.20;61.90;;;;;;6167631;23;20009;-75
2021/05/15 06:14:23;;;;;;;6.63;4.82;;;17.30;62.00;;;;;;6167637;23;20064;-75
2021/05/15 06:16:49;;;;;;;6.32;4.93;;;17.40;62.20;;;;;;6167925;23;20097;-73
2021/05/15 06:19:18;;;;;;;6.47;4.45;;;17.50;62.40;;;;;;6167147;23;20395;-75
2021/05/15 06:21:44;;;;;;;5.03;4.40;;;17.60;62.30;;;;;;6167802;23;20013;-75
2021/05/15 06:24:10;;;;;;;6.47;4.78;;;17.70;62.10;;;;;;6167137;23;20071;-75
2021/05/15 06:26:37;;;;;;;6.95;4.53;;;17.80;62.20;;;;;;6167475;23;20013;-74
2021/05/15 06:29:04;;;;;;;8.27;4.40;;;17.90;62.30;;;;;;6167513;23;20088;-74
2021/05/15 06:31:30;;;;;;;5.85;4.40;;;17.90;62.30;;;;;;6166869;23;20025;-76
2021/05/15 06:33:56;;;;;;;8.93;4.70;;;17.90;62.20;;;;;;6167777;23;20014;-75
2021/05/15 06:36:22;;;;;;;7.30;4.68;;;17.90;62.00;;;;;;6167667;23;20025;-75
2021/05/15 06:38:48;;;;;;;5.45;4.60;;;17.90;62.00;;;;;;6168953;23;20288;-75
2021/05/15 06:41:13;;;;;;;5.85;4.70;;;17.80;62.00;;;;;;6169113;23;20100;-75
2021/05/15 06:43:39;;;;;;;7.15;4.90;;;17.80;62.30;;;;;;6143331;23;20017;-74
2021/05/15 06:46:05;;;;;;;7.40;5.28;;;17.80;62.30;;;;;;6169233;23;20017;-77
2021/05/15 06:48:31;;;;;;;8.98;7.35;;;17.80;62.00;;;;;;6143876;23;20419;-75
2021/05/15 06:50:57;;;;;;;9.90;7.22;;;17.70;61.30;;;;;;6168929;23;20013;-77
2021/05/15 06:53:23;;;;;;;8.73;7.22;;;17.70;60.70;;;;;;6168087;23;20040;-79
2021/05/15 06:55:49;;;;;;;8.40;6.97;;;17.60;60.30;;;;;;6168802;23;20013;-79
2021/05/15 06:58:15;;;;;;;8.15;6.50;;;17.60;60.40;;;;;;6169094;23;20348;-77
2021/05/15 07:00:41;;;;;;;8.93;6.55;;;17.60;60.70;;;;;;6158906;23;20096;-76
2021/05/15 07:03:07;;;;;;;9.75;7.05;;;17.50;61.00;;;;;;6158974;23;20026;-76
2021/05/15 07:05:33;;;;;;;9.23;6.63;;;17.50;61.50;;;;;;6168948;23;20018;-77
2021/05/15 07:08:03;;;;;;;11.15;7.10;;;17.50;61.90;;;;;;6159482;23;20024;-73
2021/05/15 07:10:29;;;;;;;11.18;6.43;;;17.40;62.10;;;;;;6159071;23;20407;-78
2021/05/15 07:12:55;;;;;;;12.65;6.50;;;17.40;62.60;;;;;;6169491;23;20076;-79
2021/05/15 07:15:21;;;;;;;8.30;6.32;;;17.40;63.00;;;;;;6133867;23;20037;-77
2021/05/15 07:17:47;;;;;;;9.95;6.55;;;17.40;63.30;;;;;;6159181;23;20095;-75
2021/05/15 07:20:14;;;;;;;7.30;6.07;;;17.40;63.50;;;;;;6168766;23;20295;-75
2021/05/15 07:22:48;;;;;;;10.13;6.43;;;17.30;63.80;;;;;;6168846;23;20013;-81
2021/05/15 07:25:16;;;;;;;7.95;6.25;;;17.30;64.30;;;;;;6133580;23;20351;-77
2021/05/15 07:27:42;;;;;;;8.00;6.60;;;17.30;64.60;;;;;;6168561;23;20041;-73
2021/05/15 07:30:09;;;;;;;10.30;6.85;;;17.30;65.00;;;;;;6158669;23;20296;-76
2021/05/15 07:32:35;;;;;;;12.13;6.85;;;17.20;64.90;;;;;;6169143;23;20010;-83
2021/05/15 07:35:01;;;;;;;9.57;6.18;;;17.20;64.70;;;;;;6133029;23;20372;-74
2021/05/15 07:37:27;;;;;;;8.13;6.40;;;17.30;64.60;;;;;;6168431;23;20332;-77
2021/05/15 07:39:53;;;;;;;7.20;5.97;;;17.20;64.70;;;;;;6169264;23;20025;-74
2021/05/15 07:42:19;;;;;;;6.80;6.10;;;17.30;64.80;;;;;;6169056;23;20295;-82
2021/05/15 07:44:45;;;;;;;10.05;6.18;;;17.20;64.80;;;;;;6142728;23;20419;-80
2021/05/15 07:47:12;;;;;;;9.65;6.03;;;17.20;64.90;;;;;;6168305;23;20141;-78
2021/05/15 07:49:37;;;;;;;10.10;5.10;;;17.20;64.90;;;;;;6167927;23;20399;-79
2021/05/15 07:52:03;;;;;;;7.65;6.00;;;17.20;64.90;;;;;;6168230;23;20040;-76
2021/05/15 07:54:30;;;;;;;8.80;5.80;;;17.20;64.90;;;;;;6162634;23;20434;-77
2021/05/15 07:56:56;;;;;;;8.43;6.18;;;17.20;64.90;;;;;;6168720;23;20010;-77
2021/05/15 07:59:25;;;;;;;7.35;5.85;;;17.20;64.90;;;;;;6168895;23;20014;-77
2021/05/15 08:01:53;;;;;;;9.07;5.97;;;17.10;64.80;;;;;;6168408;23;20013;-77
2021/05/15 08:04:19;;;;;;;8.13;6.07;;;17.10;64.70;;;;;;6158179;23;20013;-74
2021/05/15 08:06:48;;;;;;;6.97;5.65;;;17.10;64.60;;;;;;6167982;23;20075;-74
2021/05/15 08:09:14;;;;;;;7.43;6.18;;;17.10;64.80;;;;;;6168518;23;20077;-76
2021/05/15 08:11:39;;;;;;;7.47;6.05;;;17.10;64.70;;;;;;6168518;23;20037;-76
2021/05/15 08:14:05;;;;;;;6.28;5.68;;;17.10;64.80;;;;;;6168741;23;20013;-77
2021/05/15 08:16:35;;;;;;;7.57;6.45;;;17.10;64.70;;;;;;6168414;23;20299;-76
2021/05/15 08:19:02;;;;;;;7.45;5.53;;;17.10;64.70;;;;;;6168684;23;20085;-76
2021/05/15 08:21:28;;;;;;;7.35;5.43;;;17.10;64.80;;;;;;6168984;23;20089;-75
2021/05/15 08:23:54;;;;;;;6.63;5.82;;;17.10;64.90;;;;;;6168220;23;20014;-76
2021/05/15 08:26:20;;;;;;;7.30;5.78;;;17.10;64.90;;;;;;6168347;23;20025;-76
2021/05/15 08:28:51;;;;;;;6.90;5.95;;;17.10;64.90;;;;;;6167988;23;20295;-77
2021/05/15 08:31:19;;;;;;;7.70;6.32;;;17.00;64.80;;;;;;6083213;23;20013;-77
2021/05/15 08:33:45;;;;;;;7.00;5.60;;;17.00;64.90;;;;;;6168313;23;20414;-77
2021/05/15 08:36:12;;;;;;;7.90;6.18;;;17.00;64.90;;;;;;6168448;23;20010;-78
2021/05/15 08:38:42;;;;;;;8.48;6.32;;;17.00;65.00;;;;;;6168660;23;20044;-74
2021/05/15 08:41:09;;;;;;;10.30;6.63;;;17.00;65.00;;;;;;6168526;23;20020;-76
2021/05/15 08:43:40;;;;;;;9.73;6.60;;;17.00;65.20;;;;;;6167748;23;20303;-77
2021/05/15 08:46:11;;;;;;;7.28;6.55;;;17.00;65.20;;;;;;6168165;23;20013;-77
2021/05/15 08:48:37;;;;;;;6.38;5.63;;;17.00;65.20;;;;;;6168133;23;20088;-75
2021/05/15 08:51:04;;;;;;;7.30;6.00;;;17.00;65.20;;;;;;6168174;23;20009;-75
2021/05/15 08:53:31;;;;;;;8.38;6.05;;;17.00;65.30;;;;;;6166939;23;20029;-78
2021/05/15 08:55:57;;;;;;;7.25;5.78;;;17.00;65.20;;;;;;6168007;23;20013;-75
2021/05/15 08:58:24;;;;;;;7.63;5.75;;;17.00;64.70;;;;;;6168097;23;20014;-77
2021/05/15 09:00:51;;;;;;;6.90;5.60;;;17.00;64.40;;;;;;6166860;23;20037;-77
2021/05/15 09:03:19;;;;;;;9.32;6.13;;;16.90;63.70;;;;;;6167636;23;20024;-76
2021/05/15 09:05:50;;;;;;;6.90;5.35;;;16.90;63.60;;;;;;6167772;23;20013;-77
2021/05/15 09:08:17;;;;;;;6.95;5.43;;;16.90;63.70;;;;;;6167974;23;20046;-76
2021/05/15 09:10:46;;;;;;;7.80;5.63;;;16.80;63.60;;;;;;6158086;23;20013;-76
2021/05/15 09:13:20;;;;;;;8.88;5.90;;;16.80;63.60;;;;;;6167657;23;20017;-77
2021/05/15 09:15:50;;;;;;;8.00;5.20;;;16.80;63.90;;;;;;6167593;23;20076;-77
2021/05/15 09:18:21;;;;;;;9.98;6.07;;;16.80;64.00;;;;;;6168006;23;20088;-75
2021/05/15 09:20:48;;;;;;;8.57;5.28;;;16.80;63.80;;;;;;6167438;23;20083;-76
2021/05/15 09:23:22;;;;;;;9.30;5.88;;;16.80;64.60;;;;;;6167983;23;20013;-76
2021/05/15 09:26:00;;;;;;;7.30;5.90;;;16.80;64.10;;;;;;6168294;23;20009;-75
2021/05/15 09:28:38;;;;;;;9.13;6.22;;;16.80;64.10;;;;;;6168449;23;20010;-77
2021/05/15 09:31:32;;;;;;;8.38;5.90;;;16.80;64.40;;;;;;6167872;23;20089;-76
2021/05/15 09:34:04;;;;;;;8.18;5.93;;;16.80;64.50;;;;;;6167822;23;20020;-76
2021/05/15 09:36:31;;;;;;;6.82;6.13;;;16.80;64.70;;;;;;6168445;23;20021;-75
2021/05/15 09:39:07;;;;;;;7.28;5.90;;;16.80;64.80;;;;;;6168090;23;20021;-76
2021/05/15 09:41:48;;;;;;;9.55;6.20;;;16.80;64.80;;;;;;6167661;23;20013;-76
2021/05/15 09:44:18;;;;;;;7.15;6.45;;;16.80;64.90;;;;;;6141710;23;22224;-78
2021/05/15 09:46:46;;;;;;;11.20;6.88;;;16.80;65.10;;;;;;6167659;23;20431;-76
2021/05/15 09:49:13;;;;;;;8.48;5.53;;;16.90;65.20;;;;;;6167726;23;20084;-75
2021/05/15 09:51:54;;;;;;;9.55;6.28;;;16.80;65.30;;;;;;6168424;23;20013;-78
2021/05/15 09:54:26;;;;;;;9.82;6.82;;;16.90;65.40;;;;;;6163164;23;20447;-74
2021/05/15 09:57:01;;;;;;;9.73;6.82;;;16.80;65.40;;;;;;6167469;23;20013;-76
2021/05/15 09:59:37;;;;;;;7.10;5.93;;;16.90;65.70;;;;;;6157688;23;20043;-75
2021/05/15 10:02:08;;;;;;;8.32;6.75;;;16.90;65.70;;;;;;6167777;23;20013;-73
2021/05/15 10:04:34;;;;;;;9.63;6.53;;;16.90;65.80;;;;;;6167591;23;20092;-77
2021/05/15 10:07:03;;;;;;;8.43;6.32;;;16.90;65.90;;;;;;6167650;23;20018;-78
2021/05/15 10:09:36;;;;;;;10.70;6.07;;;16.90;65.90;;;;;;6142274;23;20013;-77
2021/05/15 10:12:04;;;;;;;10.85;6.35;;;16.90;65.90;;;;;;6167412;23;20343;-78
2021/05/15 10:14:31;;;;;;;6.80;5.85;;;16.80;65.80;;;;;;6169213;23;20028;-78
2021/05/15 10:16:57;;;;;;;7.65;6.07;;;16.80;65.70;;;;;;6169919;23;20033;-78
2021/05/15 10:19:24;;;;;;;9.15;6.35;;;16.80;65.70;;;;;;6143285;23;20017;-78
2021/05/15 10:21:51;;;;;;;10.07;6.50;;;16.80;65.60;;;;;;6169181;23;20013;-77
2021/05/15 10:24:22;;;;;;;6.85;6.15;;;16.80;65.60;;;;;;6168969;23;20013;-76
2021/05/15 10:27:04;;;;;;;9.48;6.57;;;16.80;65.50;;;;;;6169489;23;20013;-74
2021/05/15 10:29:39;;;;;;;7.05;5.80;;;16.80;65.30;;;;;;6159709;23;20024;-75
2021/05/15 10:32:08;;;;;;;8.48;6.38;;;16.80;65.50;;;;;;6169330;23;20016;-72
2021/05/15 10:34:34;;;;;;;7.75;5.78;;;16.80;65.60;;;;;;6169361;23;20024;-78
2021/05/15 10:37:02;;;;;;;9.00;6.07;;;16.80;65.60;;;;;;6169314;23;20014;-79
2021/05/15 10:39:32;;;;;;;7.78;5.75;;;16.80;65.50;;;;;;6169369;23;20073;-75
2021/05/15 10:42:01;;;;;;;8.63;6.47;;;16.80;65.50;;;;;;6169397;23;20013;-76
2021/05/15 10:44:42;;;;;;;7.05;6.28;;;16.80;65.60;;;;;;6169245;23;20005;-78
2021/05/15 10:47:08;;;;;;;9.05;6.55;;;16.80;65.40;;;;;;6169112;23;20085;-75
2021/05/15 10:49:34;;;;;;;7.85;6.43;;;16.80;65.50;;;;;;6169255;23;20434;-75
2021/05/15 10:52:10;;;;;;;11.02;7.03;;;16.80;65.80;;;;;;6169238;23;20013;-76
2021/05/15 10:54:43;;;;;;;8.05;6.30;;;16.80;66.20;;;;;;6163177;23;20269;-73
2021/05/15 10:57:11;;;;;;;11.38;6.72;;;16.80;66.10;;;;;;6143724;23;20017;-76
2021/05/15 10:59:40;;;;;;;9.75;6.57;;;16.80;66.20;;;;;;6169063;23;20072;-75
2021/05/15 11:02:13;;;;;;;18.23;10.27;;;16.90;66.40;;;;;;6133335;23;20044;-73
2021/05/15 11:04:53;;;;;;;30.92;15.90;;;16.90;66.60;;;;;;6143055;23;20013;-79
2021/05/15 11:07:39;;;;;;;49.25;19.80;;;16.90;66.80;;;;;;6169290;23;20017;-76
2021/05/15 11:10:11;;;;;;;93.80;35.97;;;16.90;66.30;;;;;;6169038;23;20025;-75
2021/05/15 11:12:44;;;;;;;80.65;32.55;;;17.00;66.40;;;;;;6169319;23;20068;-74
2021/05/15 11:15:13;;;;;;;67.22;28.30;;;17.00;66.60;;;;;;6143104;23;20088;-74
2021/05/15 11:17:39;;;;;;;60.70;24.67;;;17.00;66.60;;;;;;6169047;23;20090;-73
2021/05/15 11:20:08;;;;;;;41.33;21.85;;;17.00;66.40;;;;;;6168577;23;20309;-72
2021/05/15 11:22:35;;;;;;;39.10;18.35;;;17.00;66.00;;;;;;6143257;23;20009;-74
2021/05/15 11:25:04;;;;;;;44.63;20.80;;;17.00;65.70;;;;;;6168550;23;20045;-72
2021/05/15 11:27:31;;;;;;;38.58;19.55;;;17.00;65.30;;;;;;6168584;23;20280;-72
2021/05/15 11:30:06;;;;;;;31.63;18.42;;;17.00;64.90;;;;;;6158826;23;20020;-73
2021/05/15 11:32:32;;;;;;;28.45;16.02;;;17.00;64.50;;;;;;6169277;23;20064;-73
2021/05/15 11:35:01;;;;;;;23.73;15.90;;;17.00;64.50;;;;;;6169007;23;20025;-71
2021/05/15 11:37:26;;;;;;;25.67;15.10;;;17.00;64.30;;;;;;6168672;23;20010;-75
2021/05/15 11:39:53;;;;;;;22.60;14.40;;;17.00;64.10;;;;;;6169271;23;20059;-73
2021/05/15 11:42:19;;;;;;;24.08;15.27;;;16.90;64.20;;;;;;6143554;23;20009;-73
2021/05/15 11:44:51;;;;;;;20.73;14.15;;;17.00;64.50;;;;;;6168526;23;20024;-74
2021/05/15 11:47:17;;;;;;;19.90;13.38;;;17.00;64.70;;;;;;6168751;23;20013;-73
2021/05/15 11:49:43;;;;;;;20.92;14.65;;;17.00;64.70;;;;;;6169302;23;20024;-74
2021/05/15 11:52:10;;;;;;;20.35;14.00;;;17.00;64.60;;;;;;6168727;23;20013;-73
2021/05/15 11:54:38;;;;;;;20.30;13.30;;;17.00;64.70;;;;;;6137075;23;20013;-73
2021/05/15 11:57:05;;;;;;;20.17;14.27;;;17.00;64.90;;;;;;6159211;23;20010;-75
2021/05/15 11:59:31;;;;;;;16.77;13.77;;;17.00;65.10;;;;;;6168589;23;20059;-78
2021/05/15 12:01:58;;;;;;;18.90;13.40;;;17.00;65.00;;;;;;6168289;23;20016;-77
2021/05/15 12:04:29;;;;;;;20.73;14.15;;;17.00;64.80;;;;;;6168147;23;20010;-78
2021/05/15 12:07:05;;;;;;;21.08;14.70;;;17.00;64.60;;;;;;6158123;23;20010;-78
2021/05/15 12:09:31;;;;;;;21.02;14.85;;;17.00;64.50;;;;;;6168375;23;20500;-77
2021/05/15 12:12:00;;;;;;;29.55;16.13;;;17.00;64.80;;;;;;6168463;23;20017;-78
2021/05/15 12:14:58;;;;;;;20.48;14.32;;;17.00;64.90;;;;;;6168085;23;20033;-75
2021/05/15 12:17:24;;;;;;;21.23;16.05;;;17.00;64.90;;;;;;6078657;23;20010;-78
2021/05/15 12:19:54;;;;;;;20.20;14.60;;;17.00;64.80;;;;;;6168086;23;20343;-79
2021/05/15 12:22:26;;;;;;;22.10;16.38;;;17.10;64.70;;;;;;6167946;23;20347;-77
2021/05/15 12:24:52;;;;;;;23.05;15.80;;;17.10;64.60;;;;;;6132705;23;20012;-77
2021/05/15 12:27:22;;;;;;;18.80;15.10;;;17.10;64.40;;;;;;6168226;23;20018;-76
2021/05/15 12:30:08;;;;;;;19.20;14.35;;;17.00;64.20;;;;;;6167946;23;20087;-76
2021/05/15 12:32:36;;;;;;;18.58;14.60;;;17.10;64.20;;;;;;6168178;23;20193;-76
2021/05/15 12:35:09;;;;;;;20.42;15.63;;;17.10;64.10;;;;;;6167794;23;20017;-77
2021/05/15 12:37:40;;;;;;;18.17;14.43;;;17.10;64.20;;;;;;6167970;23;20013;-78
2021/05/15 12:40:07;;;;;;;18.98;14.05;;;17.00;64.10;;;;;;6158232;23;20013;-79
2021/05/15 12:42:34;;;;;;;18.95;15.27;;;17.10;63.90;;;;;;6165558;23;20013;-76
2021/05/15 12:45:11;;;;;;;18.90;15.13;;;17.10;63.70;;;;;;6167931;23;20018;-77